createdAt,value
2018-08-07T00:01:43.851Z,99.90
2018-08-07T00:04:12.626Z,99.90
2018-08-07T00:06:41.233Z,99.90
2018-08-07T00:09:10.820Z,99.90
2018-08-07T00:11:39.013Z,99.90
2018-08-07T00:14:07.465Z,99.90
2018-08-07T00:16:35.853Z,99.90
2018-08-07T00:19:03.994Z,99.90
2018-08-07T00:21:32.258Z,99.90
2018-08-07T00:24:00.448Z,99.90
2018-08-07T00:26:28.610Z,99.90
2018-08-07T00:28:56.802Z,99.90
2018-08-07T00:31:25.101Z,99.90
2018-08-07T00:33:53.754Z,99.90
2018-08-07T00:36:21.919Z,99.90
2018-08-07T00:38:50.222Z,99.90
2018-08-07T00:41:18.450Z,99.90
2018-08-07T00:43:46.662Z,99.90
2018-08-07T00:46:14.911Z,99.90
2018-08-07T00:48:43.097Z,99.90
2018-08-07T00:51:11.265Z,99.90
2018-08-07T00:53:39.477Z,99.90
2018-08-07T00:56:07.722Z,99.90
2018-08-07T00:58:35.926Z,99.90
2018-08-07T01:01:04.085Z,99.90
2018-08-07T01:03:32.257Z,99.90
2018-08-07T01:06:00.442Z,99.90
2018-08-07T01:08:28.809Z,99.90
2018-08-07T01:10:57.005Z,99.90
2018-08-07T01:13:25.634Z,99.90
2018-08-07T01:15:53.855Z,99.90
2018-08-07T01:18:22.085Z,99.90
2018-08-07T01:20:50.316Z,99.90
2018-08-07T01:23:18.562Z,99.90
2018-08-07T01:25:46.721Z,99.90
2018-08-07T01:28:14.922Z,99.90
2018-08-07T01:30:43.166Z,99.90
2018-08-07T01:33:11.349Z,99.90
2018-08-07T01:35:39.519Z,99.90
2018-08-07T01:38:08.187Z,99.90
2018-08-07T01:40:36.682Z,99.90
2018-08-07T01:43:05.080Z,99.90
2018-08-07T01:45:33.313Z,99.90
2018-08-07T01:48:01.526Z,99.90
2018-08-07T01:50:30.025Z,99.90
2018-08-07T01:52:58.244Z,99.90
2018-08-07T01:55:27.829Z,99.90
2018-08-07T01:57:56.422Z,99.90
2018-08-07T02:00:25.490Z,99.90
2018-08-07T02:02:53.753Z,99.90
2018-08-07T02:05:21.912Z,99.90
2018-08-07T02:07:50.074Z,99.90
2018-08-07T02:10:19.349Z,99.90
2018-08-07T02:12:47.558Z,99.90
2018-08-07T02:15:16.230Z,99.90
2018-08-07T02:17:44.487Z,99.90
2018-08-07T02:20:14.893Z,99.90
2018-08-07T02:22:43.789Z,99.90
2018-08-07T02:25:14.305Z,99.90
2018-08-07T02:27:43.013Z,99.90
2018-08-07T02:30:13.190Z,99.90
2018-08-07T02:32:41.902Z,99.90
2018-08-07T02:35:11.322Z,99.90
2018-08-07T02:37:39.999Z,99.90
2018-08-07T02:40:09.414Z,99.90
2018-08-07T02:42:37.610Z,99.90
2018-08-07T02:45:07.961Z,99.90
2018-08-07T02:47:36.295Z,99.90
2018-08-07T02:50:05.377Z,99.90
2018-08-07T02:52:33.560Z,99.90
2018-08-07T02:55:01.774Z,99.90
2018-08-07T02:57:29.957Z,99.90
2018-08-07T02:59:58.174Z,99.90
2018-08-07T03:02:26.346Z,99.90
2018-08-07T03:04:55.026Z,99.90
2018-08-07T03:07:23.247Z,99.90
2018-08-07T03:09:51.662Z,99.90
2018-08-07T03:12:19.841Z,99.90
2018-08-07T03:14:48.026Z,99.90
2018-08-07T03:17:16.190Z,99.90
2018-08-07T03:19:44.414Z,99.90
2018-08-07T03:22:12.614Z,99.90
2018-08-07T03:24:40.818Z,99.90
2018-08-07T03:27:09.078Z,99.90
2018-08-07T03:29:37.265Z,99.90
2018-08-07T03:32:05.479Z,99.90
2018-08-07T03:37:01.681Z,99.90
2018-08-07T03:39:29.874Z,99.90
2018-08-07T03:41:58.033Z,99.90
2018-08-07T03:44:26.245Z,99.90
2018-08-07T03:46:54.476Z,99.90
2018-08-07T03:49:23.287Z,99.90
2018-08-07T03:51:51.335Z,99.90
2018-08-07T03:54:19.591Z,99.90
2018-08-07T03:56:47.781Z,99.90
2018-08-07T03:59:15.974Z,99.90
2018-08-07T04:01:44.174Z,99.90
2018-08-07T04:04:12.369Z,99.90
2018-08-07T04:06:40.554Z,99.90
2018-08-07T04:09:11.666Z,99.90
2018-08-07T04:11:39.976Z,99.90
2018-08-07T04:14:08.617Z,99.90
2018-08-07T04:16:38.798Z,99.90
2018-08-07T04:19:06.996Z,99.90
2018-08-07T04:21:35.220Z,99.90
2018-08-07T04:24:03.426Z,99.90
2018-08-07T04:26:31.666Z,99.90
2018-08-07T04:28:59.829Z,99.90
2018-08-07T04:31:28.043Z,99.90
2018-08-07T04:33:56.228Z,99.90
2018-08-07T04:36:24.538Z,99.90
2018-08-07T04:38:52.778Z,99.90
2018-08-07T04:41:20.953Z,99.90
2018-08-07T04:43:49.130Z,99.90
2018-08-07T04:46:17.777Z,99.90
2018-08-07T04:48:46.026Z,99.90
2018-08-07T04:51:14.261Z,99.90
2018-08-07T04:53:42.873Z,99.90
2018-08-07T04:56:11.081Z,99.90
2018-08-07T04:58:39.289Z,99.90
2018-08-07T05:01:07.667Z,99.90
2018-08-07T05:03:36.777Z,99.90
2018-08-07T05:06:04.953Z,99.90
2018-08-07T05:08:33.524Z,99.90
2018-08-07T05:11:01.785Z,99.90
2018-08-07T05:13:29.963Z,99.90
2018-08-07T05:15:58.252Z,99.90
2018-08-07T05:18:26.465Z,99.90
2018-08-07T05:20:54.682Z,99.90
2018-08-07T05:23:22.833Z,99.90
2018-08-07T05:25:51.549Z,99.90
2018-08-07T05:28:19.746Z,99.90
2018-08-07T05:30:47.969Z,99.90
2018-08-07T05:33:16.141Z,99.90
2018-08-07T05:35:46.012Z,99.90
2018-08-07T05:38:14.565Z,99.90
2018-08-07T05:40:42.818Z,99.90
2018-08-07T05:43:10.969Z,99.90
2018-08-07T05:45:39.802Z,99.90
2018-08-07T05:48:08.013Z,99.90
2018-08-07T05:50:36.355Z,99.90
2018-08-07T05:53:04.405Z,99.90
2018-08-07T05:55:32.984Z,99.90
2018-08-07T05:58:01.239Z,99.90
2018-08-07T06:00:29.409Z,99.90
2018-08-07T06:02:57.613Z,99.90
2018-08-07T06:05:25.806Z,99.90
2018-08-07T06:07:54.030Z,99.90
2018-08-07T06:10:22.211Z,99.90
2018-08-07T06:12:50.357Z,99.90
2018-08-07T06:15:18.748Z,99.90
2018-08-07T06:17:47.341Z,99.90
2018-08-07T06:20:15.510Z,99.90
2018-08-07T06:22:43.748Z,99.90
2018-08-07T06:25:12.026Z,99.90
2018-08-07T06:27:40.275Z,99.90
2018-08-07T06:30:12.073Z,99.90
2018-08-07T06:32:42.294Z,99.90
2018-08-07T06:35:10.681Z,99.90
2018-08-07T06:37:38.860Z,99.90
2018-08-07T06:40:08.997Z,99.90
2018-08-07T06:42:37.493Z,99.90
2018-08-07T06:45:06.404Z,99.90
2018-08-07T06:47:34.761Z,99.90
2018-08-07T06:50:03.182Z,99.90
2018-08-07T06:52:32.138Z,99.90
2018-08-07T06:55:00.325Z,99.90
2018-08-07T06:57:28.490Z,99.90
2018-08-07T06:59:56.677Z,99.90
2018-08-07T07:02:24.912Z,99.90
2018-08-07T07:04:53.159Z,99.90
2018-08-07T07:07:21.370Z,99.90
2018-08-07T07:09:49.603Z,99.90
2018-08-07T07:12:17.825Z,99.90
2018-08-07T07:14:46.915Z,99.90
2018-08-07T07:17:15.085Z,99.90
2018-08-07T07:19:43.309Z,99.90
2018-08-07T07:22:11.477Z,99.90
2018-08-07T07:24:40.037Z,99.90
2018-08-07T07:27:08.190Z,99.90
2018-08-07T07:29:37.087Z,99.40
2018-08-07T07:32:05.873Z,99.00
2018-08-07T07:34:34.131Z,99.90
2018-08-07T07:37:02.335Z,99.90
2018-08-07T07:39:30.544Z,98.90
2018-08-07T07:41:58.713Z,99.60
2018-08-07T07:46:54.969Z,99.90
2018-08-07T07:49:23.170Z,99.80
2018-08-07T07:51:51.354Z,99.90
2018-08-07T07:54:19.598Z,99.90
2018-08-07T07:56:47.847Z,99.50
2018-08-07T07:59:15.997Z,98.80
2018-08-07T08:01:44.234Z,98.80
2018-08-07T08:04:12.623Z,98.70
2018-08-07T08:06:40.878Z,96.20
2018-08-07T08:09:09.054Z,95.80
2018-08-07T08:11:37.294Z,94.40
2018-08-07T08:14:05.519Z,94.40
2018-08-07T08:16:33.775Z,93.30
2018-08-07T08:19:01.958Z,92.60
2018-08-07T08:21:30.202Z,91.50
2018-08-07T08:23:58.423Z,90.60
2018-08-07T08:26:26.618Z,90.00
2018-08-07T08:28:55.177Z,87.90
2018-08-07T08:31:23.773Z,87.50
2018-08-07T08:33:51.985Z,87.80
2018-08-07T08:36:20.236Z,84.60
2018-08-07T08:38:48.688Z,84.30
2018-08-07T08:41:16.871Z,85.30
2018-08-07T08:43:45.063Z,85.70
2018-08-07T08:46:13.316Z,84.30
2018-08-07T08:48:41.598Z,83.60
2018-08-07T08:51:09.726Z,82.80
2018-08-07T08:53:38.763Z,83.90
2018-08-07T08:56:06.991Z,83.70
2018-08-07T08:58:36.565Z,85.40
2018-08-07T09:01:04.785Z,86.10
2018-08-07T09:03:33.014Z,84.20
2018-08-07T09:06:01.198Z,84.80
2018-08-07T09:08:29.395Z,85.40
2018-08-07T09:10:57.720Z,85.40
2018-08-07T09:13:25.913Z,84.20
2018-08-07T09:15:54.069Z,83.20
2018-08-07T09:18:22.271Z,83.10
2018-08-07T09:20:50.809Z,83.60
2018-08-07T09:23:19.009Z,83.50
2018-08-07T09:25:47.403Z,82.90
2018-08-07T09:28:15.383Z,83.70
2018-08-07T09:30:43.601Z,84.50
2018-08-07T09:33:11.914Z,81.30
2018-08-07T09:35:40.097Z,80.40
2018-08-07T09:38:08.322Z,79.60
2018-08-07T09:40:36.501Z,81.00
2018-08-07T09:43:04.769Z,80.90
2018-08-07T09:45:35.162Z,82.90
2018-08-07T09:48:09.031Z,79.40
2018-08-07T09:50:37.325Z,80.00
2018-08-07T09:53:05.638Z,75.10
2018-08-07T09:55:33.881Z,75.70
2018-08-07T09:58:02.638Z,75.30
2018-08-07T10:03:09.282Z,73.40
2018-08-07T10:05:37.700Z,73.20
2018-08-07T10:08:05.877Z,73.40
2018-08-07T10:10:34.084Z,73.80
2018-08-07T10:13:02.517Z,72.60
2018-08-07T10:17:59.305Z,70.40
2018-08-07T10:20:27.450Z,70.40
2018-08-07T10:22:55.997Z,70.30
2018-08-07T10:25:24.374Z,71.10
2018-08-07T10:27:53.045Z,70.40
2018-08-07T10:30:22.805Z,70.90
2018-08-07T10:32:52.527Z,72.10
2018-08-07T10:35:20.731Z,71.30
2018-08-07T10:37:52.969Z,71.90
2018-08-07T10:40:22.993Z,71.50
2018-08-07T10:42:51.250Z,70.40
2018-08-07T10:45:20.563Z,71.20
2018-08-07T10:47:48.890Z,69.50
2018-08-07T10:50:19.276Z,69.80
2018-08-07T10:52:47.867Z,71.70
2018-08-07T10:55:16.519Z,70.40
2018-08-07T10:57:46.354Z,69.80
2018-08-07T11:00:21.806Z,69.30
2018-08-07T11:02:50.710Z,70.30
2018-08-07T11:05:19.465Z,68.50
2018-08-07T11:10:15.994Z,69.80
2018-08-07T11:12:44.234Z,70.10
2018-08-07T11:15:19.294Z,69.20
2018-08-07T11:17:48.419Z,69.00
2018-08-07T11:20:16.984Z,68.70
2018-08-07T11:22:47.734Z,69.20
2018-08-07T11:25:17.937Z,68.90
2018-08-07T11:27:46.109Z,69.30
2018-08-07T11:30:16.590Z,68.80
2018-08-07T11:32:45.230Z,68.50
2018-08-07T11:35:13.942Z,70.80
2018-08-07T11:37:43.209Z,70.50
2018-08-07T11:40:13.841Z,67.30
2018-08-07T11:42:42.341Z,68.50
2018-08-07T11:45:12.853Z,68.60
2018-08-07T11:47:41.107Z,69.20
2018-08-07T11:50:13.177Z,68.60
2018-08-07T11:52:41.455Z,68.00
2018-08-07T11:55:11.569Z,69.00
2018-08-07T11:57:39.762Z,68.30
2018-08-07T12:00:41.090Z,68.20
2018-08-07T12:03:10.593Z,69.00
2018-08-07T12:05:39.102Z,69.50
2018-08-07T12:08:07.880Z,67.60
2018-08-07T12:10:36.057Z,69.40
2018-08-07T12:13:04.262Z,70.20
2018-08-07T12:15:32.413Z,70.10
2018-08-07T12:18:00.617Z,68.90
2018-08-07T12:20:28.931Z,68.00
2018-08-07T12:22:57.823Z,68.50
2018-08-07T12:25:26.377Z,69.20
2018-08-07T12:27:54.673Z,68.70
2018-08-07T12:30:25.661Z,67.50
2018-08-07T12:32:53.902Z,70.00
2018-08-07T12:35:22.156Z,69.00
2018-08-07T12:37:50.475Z,68.50
2018-08-07T12:40:21.001Z,68.60
2018-08-07T12:42:49.767Z,68.10
2018-08-07T12:45:18.156Z,67.90
2018-08-07T12:47:46.954Z,68.30
2018-08-07T12:50:16.042Z,66.80
2018-08-07T12:52:44.290Z,67.10
2018-08-07T12:55:14.212Z,67.80
2018-08-07T12:57:42.591Z,67.20
2018-08-07T13:00:14.143Z,68.10
2018-08-07T13:02:42.407Z,68.70
2018-08-07T13:05:10.631Z,68.70
2018-08-07T13:07:38.783Z,70.10
2018-08-07T13:10:09.798Z,71.10
2018-08-07T13:12:38.535Z,71.90
2018-08-07T13:15:07.799Z,72.60
2018-08-07T13:17:36.066Z,73.00
2018-08-07T13:20:06.240Z,73.10
2018-08-07T13:22:34.859Z,72.80
2018-08-07T13:25:03.058Z,72.10
2018-08-07T13:27:31.725Z,72.30
2018-08-07T13:29:59.990Z,72.40
2018-08-07T13:32:29.232Z,72.40
2018-08-07T13:34:57.449Z,72.60
2018-08-07T13:37:26.075Z,73.50
2018-08-07T13:39:54.265Z,74.80
2018-08-07T13:42:22.545Z,75.00
2018-08-07T13:44:50.697Z,75.90
2018-08-07T13:47:18.906Z,76.10
2018-08-07T13:49:47.124Z,77.10
2018-08-07T13:52:15.410Z,78.60
2018-08-07T13:54:43.594Z,80.70
2018-08-07T13:57:12.094Z,80.50
2018-08-07T13:59:40.327Z,81.20
2018-08-07T14:02:08.785Z,82.00
2018-08-07T14:04:37.626Z,82.50
2018-08-07T14:07:05.804Z,83.30
2018-08-07T14:09:34.110Z,83.10
2018-08-07T14:12:02.429Z,82.90
2018-08-07T14:14:30.567Z,84.00
2018-08-07T14:16:58.709Z,84.40
2018-08-07T14:19:26.882Z,83.40
2018-08-07T14:21:55.118Z,83.90
2018-08-07T14:24:23.353Z,84.20
2018-08-07T14:26:51.642Z,85.30
2018-08-07T14:29:19.857Z,86.50
2018-08-07T14:31:48.147Z,87.40
2018-08-07T14:34:16.356Z,88.00
2018-08-07T14:36:44.583Z,88.30
2018-08-07T14:39:12.786Z,88.70
2018-08-07T14:41:40.918Z,89.40
2018-08-07T14:46:38.355Z,90.10
2018-08-07T14:49:06.573Z,90.20
2018-08-07T14:51:34.801Z,90.40
2018-08-07T14:54:03.010Z,90.90
2018-08-07T14:56:31.157Z,90.90
2018-08-07T14:58:59.332Z,91.10
2018-08-07T15:01:27.504Z,91.50
2018-08-07T15:03:56.865Z,92.00
2018-08-07T15:06:25.083Z,92.40
2018-08-07T15:08:53.250Z,91.80
2018-08-07T15:11:21.418Z,91.70
2018-08-07T15:13:49.621Z,91.50
2018-08-07T15:16:17.788Z,91.10
2018-08-07T15:18:46.092Z,90.60
2018-08-07T15:21:14.691Z,90.20
2018-08-07T15:23:42.875Z,90.00
2018-08-07T15:26:11.194Z,89.00
2018-08-07T15:28:39.381Z,87.10
2018-08-07T15:31:08.463Z,83.20
2018-08-07T15:33:36.643Z,79.60
2018-08-07T15:36:06.666Z,77.80
2018-08-07T15:38:35.390Z,78.30
2018-08-07T15:41:03.629Z,78.50
2018-08-07T15:43:31.977Z,79.40
2018-08-07T15:46:00.190Z,80.90
2018-08-07T15:48:28.397Z,81.00
2018-08-07T15:50:56.639Z,79.40
2018-08-07T15:53:24.818Z,78.80
2018-08-07T15:55:53.005Z,77.20
2018-08-07T15:58:21.143Z,77.80
2018-08-07T16:00:49.417Z,77.60
2018-08-07T16:03:17.653Z,77.20
2018-08-07T16:05:45.840Z,77.80
2018-08-07T16:08:14.073Z,78.10
2018-08-07T16:10:42.301Z,78.40
2018-08-07T16:13:10.870Z,77.70
2018-08-07T16:15:39.016Z,76.80
2018-08-07T16:18:07.549Z,75.50
2018-08-07T16:20:36.042Z,74.60
2018-08-07T16:23:04.501Z,74.20
2018-08-07T16:25:32.702Z,75.20
2018-08-07T16:28:00.871Z,75.70
2018-08-07T16:30:29.514Z,75.30
2018-08-07T16:32:57.589Z,76.20
2018-08-07T16:35:25.821Z,76.00
2018-08-07T16:37:54.076Z,76.50
2018-08-07T16:40:23.489Z,75.40
2018-08-07T16:42:52.889Z,75.40
2018-08-07T16:45:22.327Z,75.20
2018-08-07T16:47:50.857Z,73.60
2018-08-07T16:50:25.142Z,73.70
2018-08-07T16:52:54.417Z,74.70
2018-08-07T16:55:24.902Z,73.50
2018-08-07T16:57:53.165Z,74.60
2018-08-07T17:00:21.674Z,74.50
2018-08-07T17:02:50.457Z,74.20
2018-08-07T17:05:18.817Z,75.40
2018-08-07T17:07:47.855Z,74.80
2018-08-07T17:10:25.145Z,73.90
2018-08-07T17:12:53.354Z,74.30
2018-08-07T17:15:22.302Z,74.00
2018-08-07T17:17:51.339Z,73.90
2018-08-07T17:20:22.584Z,73.40
2018-08-07T17:22:51.350Z,72.40
2018-08-07T17:25:20.817Z,72.80
2018-08-07T17:27:49.568Z,74.20
2018-08-07T17:30:19.649Z,73.50
2018-08-07T17:32:48.033Z,73.50
2018-08-07T17:35:18.243Z,73.30
2018-08-07T17:37:47.123Z,73.80
2018-08-07T17:40:16.833Z,73.60
2018-08-07T17:42:45.027Z,74.00
2018-08-07T17:45:13.409Z,74.80
2018-08-07T17:50:11.759Z,75.30
2018-08-07T17:52:40.077Z,75.70
2018-08-07T17:55:08.994Z,76.00
2018-08-07T17:57:38.491Z,76.40
2018-08-07T18:00:22.609Z,77.20
2018-08-07T18:02:50.813Z,77.40
2018-08-07T18:05:19.029Z,77.80
2018-08-07T18:07:49.063Z,77.90
2018-08-07T18:10:18.429Z,78.60
2018-08-07T18:12:46.677Z,79.00
2018-08-07T18:15:16.077Z,79.20
2018-08-07T18:20:20.109Z,79.70
2018-08-07T18:22:48.674Z,80.30
2018-08-07T18:25:17.633Z,80.60
2018-08-07T18:27:45.964Z,81.10
2018-08-07T18:30:15.659Z,81.50
2018-08-07T18:32:44.276Z,81.90
2018-08-07T18:35:17.645Z,82.20
2018-08-07T18:40:13.758Z,82.90
2018-08-07T18:42:42.403Z,83.30
2018-08-07T18:45:12.291Z,83.50
2018-08-07T18:47:41.888Z,83.80
2018-08-07T18:50:11.777Z,84.00
2018-08-07T18:52:40.671Z,84.30
2018-08-07T18:55:11.562Z,84.80
2018-08-07T18:57:40.650Z,85.10
2018-08-07T19:00:11.077Z,86.00
2018-08-07T19:02:39.795Z,86.60
2018-08-07T19:05:08.941Z,87.30
2018-08-07T19:07:37.717Z,87.80
2018-08-07T19:10:05.896Z,88.00
2018-08-07T19:12:34.074Z,87.90
2018-08-07T19:15:02.234Z,87.90
2018-08-07T19:17:30.390Z,88.10
2018-08-07T19:19:58.630Z,87.80
2018-08-07T19:22:26.797Z,87.90
2018-08-07T19:24:54.981Z,87.30
2018-08-07T19:27:23.166Z,87.90
2018-08-07T19:29:51.832Z,88.60
2018-08-07T19:32:20.075Z,88.20
2018-08-07T19:34:48.271Z,88.60
2018-08-07T19:37:16.443Z,88.60
2018-08-07T19:39:44.582Z,89.00
2018-08-07T19:42:12.799Z,88.50
2018-08-07T19:44:41.029Z,88.40
2018-08-07T19:47:09.534Z,89.60
2018-08-07T19:49:37.729Z,90.10
2018-08-07T19:52:06.166Z,90.40
2018-08-07T19:54:34.479Z,90.50
2018-08-07T19:57:02.641Z,90.50
2018-08-07T19:59:31.025Z,90.70
2018-08-07T20:04:27.198Z,90.70
2018-08-07T20:06:55.354Z,90.70
2018-08-07T20:09:23.698Z,90.80
2018-08-07T20:11:52.061Z,91.20
2018-08-07T20:14:20.486Z,91.20
2018-08-07T20:16:48.659Z,91.50
2018-08-07T20:19:16.990Z,91.50
2018-08-07T20:21:45.403Z,91.30
2018-08-07T20:24:13.601Z,91.30
2018-08-07T20:26:41.841Z,91.10
2018-08-07T20:29:10.057Z,91.20
2018-08-07T20:31:38.289Z,91.30
2018-08-07T20:34:06.501Z,91.50
2018-08-07T20:36:34.760Z,91.70
2018-08-07T20:39:03.026Z,91.60
2018-08-07T20:43:59.250Z,91.90
2018-08-07T20:46:27.839Z,91.90
2018-08-07T20:48:56.046Z,92.20
2018-08-07T20:51:24.273Z,92.60
2018-08-07T20:53:52.453Z,92.50
2018-08-07T20:56:20.637Z,92.30
2018-08-07T20:58:49.656Z,92.40
2018-08-07T21:01:17.957Z,92.40
2018-08-07T21:03:46.165Z,92.60
2018-08-07T21:06:14.378Z,92.40
2018-08-07T21:08:42.550Z,92.40
2018-08-07T21:11:10.732Z,92.50
2018-08-07T21:13:38.946Z,92.50
2018-08-07T21:16:07.182Z,92.40
2018-08-07T21:18:35.324Z,92.50
2018-08-07T21:21:03.853Z,92.60
2018-08-07T21:23:32.102Z,92.40
2018-08-07T21:26:00.301Z,92.60
2018-08-07T21:28:28.583Z,92.50
2018-08-07T21:30:56.850Z,92.80
2018-08-07T21:33:25.048Z,93.50
2018-08-07T21:35:53.244Z,94.10
2018-08-07T21:38:21.377Z,94.10
2018-08-07T21:40:49.664Z,94.20
2018-08-07T21:43:17.806Z,94.30
2018-08-07T21:45:46.243Z,94.40
2018-08-07T21:48:14.460Z,94.50
2018-08-07T21:50:43.363Z,94.50
2018-08-07T21:53:11.609Z,95.10
2018-08-07T21:55:39.810Z,94.90
2018-08-07T21:58:07.950Z,95.00
2018-08-07T22:00:43.240Z,95.20
2018-08-07T22:03:11.473Z,95.10
2018-08-07T22:05:39.717Z,95.30
2018-08-07T22:08:08.794Z,95.50
2018-08-07T22:10:37.127Z,95.70
2018-08-07T22:13:06.198Z,95.50
2018-08-07T22:15:34.431Z,95.60
2018-08-07T22:20:30.574Z,95.50
2018-08-07T22:22:58.791Z,95.60
2018-08-07T22:25:27.028Z,95.40
2018-08-07T22:30:24.224Z,95.50
2018-08-07T22:32:52.390Z,95.70
2018-08-07T22:35:20.605Z,95.40
2018-08-07T22:37:52.433Z,95.20
2018-08-07T22:40:20.616Z,95.10
2018-08-07T22:42:48.851Z,94.90
2018-08-07T22:45:18.144Z,94.80
2018-08-07T22:47:46.394Z,94.50
2018-08-07T22:50:16.022Z,94.30
2018-08-07T22:52:44.713Z,94.20
2018-08-07T22:55:16.355Z,94.00
2018-08-07T22:57:49.551Z,94.20
2018-08-07T23:00:19.530Z,94.20
2018-08-07T23:02:47.645Z,94.10
2018-08-07T23:05:16.889Z,94.20
2018-08-07T23:07:45.097Z,94.20
2018-08-07T23:10:19.666Z,94.60
2018-08-07T23:12:47.923Z,94.90
2018-08-07T23:15:18.130Z,95.50
2018-08-07T23:17:46.913Z,95.50
2018-08-07T23:20:16.653Z,95.70
2018-08-07T23:25:12.878Z,96.20
2018-08-07T23:27:41.041Z,96.40
2018-08-07T23:30:14.967Z,96.60
2018-08-07T23:32:43.156Z,96.90
2018-08-07T23:37:39.602Z,97.30
2018-08-07T23:40:09.297Z,97.70
2018-08-07T23:42:37.576Z,98.00
2018-08-07T23:45:07.071Z,98.10
2018-08-07T23:47:35.363Z,98.30
2018-08-07T23:50:03.530Z,98.40
2018-08-07T23:52:31.681Z,98.50
2018-08-07T23:55:00.359Z,98.50
2018-08-07T23:57:28.536Z,98.60
2018-08-07T23:59:56.724Z,98.60
